Time;durP1;ratioP1;P1;durP2;ratioP2;P2;SDS_P1;SDS_P2;PMS_P1;PMS_P2;Temp;Humidity;BMP_temperature;BMP_pressure;BME280_temperature;BME280_humidity;BME280_pressure;Samples;Min_cycle;Max_cycle;Signal;HPM_P1;HPM_P2
2022/01/31 00:00:28;;;;;;;20.53;4.23;;;3.10;99.90;;;;;;5030960;28;20060;-75
2022/01/31 00:02:54;;;;;;;10.23;2.60;;;3.10;99.90;;;;;;4998592;28;20046;-77
2022/01/31 00:05:19;;;;;;;10.77;2.60;;;3.10;99.90;;;;;;5014840;28;20081;-75
2022/01/31 00:07:45;;;;;;;9.45;3.15;;;3.10;99.90;;;;;;5030923;28;20050;-76
2022/01/31 00:10:13;;;;;;;5.70;2.72;;;3.10;99.90;;;;;;5014490;28;20061;-77
2022/01/31 00:15:11;;;;;;;15.32;4.55;;;3.20;99.90;;;;;;5031290;28;20492;-75
2022/01/31 00:17:37;;;;;;;14.65;3.40;;;3.20;99.90;;;;;;5031205;28;20112;-75
2022/01/31 00:20:03;;;;;;;15.75;3.53;;;3.20;99.90;;;;;;5014741;28;20091;-77
2022/01/31 00:22:29;;;;;;;12.20;3.33;;;3.20;99.90;;;;;;5030864;28;20053;-74
2022/01/31 00:24:54;;;;;;;16.55;3.58;;;3.20;99.90;;;;;;5031010;28;20132;-77
2022/01/31 00:27:20;;;;;;;11.30;2.70;;;3.30;99.90;;;;;;5015093;28;20097;-78
2022/01/31 00:29:46;;;;;;;13.93;3.13;;;3.30;99.90;;;;;;5001610;28;20052;-75
2022/01/31 00:32:11;;;;;;;9.95;2.85;;;3.30;99.90;;;;;;5017889;28;20491;-78
2022/01/31 00:34:38;;;;;;;13.18;2.83;;;3.30;99.90;;;;;;5018005;28;20045;-75
2022/01/31 00:37:04;;;;;;;14.48;3.97;;;3.30;99.90;;;;;;5034304;28;20128;-78
2022/01/31 00:39:33;;;;;;;14.05;4.03;;;3.30;99.90;;;;;;5017822;28;20472;-77
2022/01/31 00:41:59;;;;;;;18.17;3.17;;;3.30;99.90;;;;;;5017891;28;20045;-77
2022/01/31 00:44:37;;;;;;;12.48;3.10;;;3.30;99.90;;;;;;5034105;28;20106;-77
2022/01/31 00:47:15;;;;;;;15.68;4.22;;;3.30;99.90;;;;;;5034180;28;20172;-75
2022/01/31 00:49:48;;;;;;;14.65;3.75;;;3.30;99.90;;;;;;5033848;28;20056;-78
2022/01/31 00:52:14;;;;;;;16.15;3.22;;;3.20;99.90;;;;;;5034040;28;20049;-74
2022/01/31 00:54:40;;;;;;;8.23;3.03;;;3.10;99.90;;;;;;5033886;28;20132;-78
2022/01/31 00:57:05;;;;;;;14.10;4.18;;;3.10;99.90;;;;;;5033890;28;20534;-77
2022/01/31 00:59:31;;;;;;;11.97;3.93;;;3.10;99.90;;;;;;5034111;28;20045;-75
2022/01/31 01:01:57;;;;;;;17.70;3.43;;;3.00;99.90;;;;;;5033870;28;20037;-78
2022/01/31 01:04:23;;;;;;;9.80;3.50;;;3.00;99.90;;;;;;5017157;28;20504;-77
2022/01/31 01:06:48;;;;;;;14.00;4.77;;;3.00;99.90;;;;;;5033710;28;20064;-75
2022/01/31 01:09:14;;;;;;;15.73;5.10;;;3.00;99.90;;;;;;5034120;28;20439;-75
2022/01/31 01:11:40;;;;;;;11.18;3.58;;;3.10;99.90;;;;;;5033853;28;20056;-76
2022/01/31 01:14:06;;;;;;;14.73;5.57;;;3.00;99.90;;;;;;5033730;28;20086;-75
2022/01/31 01:16:32;;;;;;;20.23;6.32;;;3.10;99.90;;;;;;5033853;28;20038;-77
2022/01/31 01:18:58;;;;;;;9.90;4.38;;;3.00;99.90;;;;;;5033382;28;20053;-78
2022/01/31 01:21:24;;;;;;;12.05;4.22;;;3.00;99.90;;;;;;5017102;28;20041;-76
2022/01/31 01:23:49;;;;;;;14.27;4.40;;;3.00;99.90;;;;;;5017121;28;20065;-79
2022/01/31 01:26:15;;;;;;;15.27;4.35;;;3.00;99.90;;;;;;5033259;28;20041;-77
2022/01/31 01:28:44;;;;;;;14.18;5.72;;;3.00;99.90;;;;;;5017246;28;20052;-78
2022/01/31 01:31:09;;;;;;;9.23;5.35;;;3.00;99.90;;;;;;5017172;28;20049;-78
2022/01/31 01:33:39;;;;;;;17.97;6.33;;;2.90;99.90;;;;;;5033423;28;20072;-77
2022/01/31 01:36:06;;;;;;;15.37;7.03;;;2.90;99.90;;;;;;5033532;28;20107;-77
2022/01/31 01:38:33;;;;;;;14.30;6.67;;;2.80;99.90;;;;;;5016769;28;20124;-77
2022/01/31 01:41:00;;;;;;;15.83;7.17;;;2.80;99.90;;;;;;5016734;28;20049;-79
2022/01/31 01:43:28;;;;;;;8.85;5.05;;;2.70;99.90;;;;;;5033196;28;20045;-78
2022/01/31 01:45:57;;;;;;;13.87;6.13;;;2.70;99.90;;;;;;5016539;28;20068;-79
2022/01/31 01:48:24;;;;;;;12.43;5.60;;;2.60;99.90;;;;;;5016568;28;20091;-80
2022/01/31 01:50:50;;;;;;;12.67;6.07;;;2.60;99.90;;;;;;5033019;28;20133;-77
2022/01/31 01:53:16;;;;;;;18.53;10.13;;;2.60;99.90;;;;;;5033029;28;20056;-76
2022/01/31 01:55:46;;;;;;;13.83;7.23;;;2.50;99.90;;;;;;5016676;28;20049;-77
2022/01/31 01:58:16;;;;;;;12.67;5.93;;;2.40;99.90;;;;;;5033229;28;20499;-79
2022/01/31 02:00:50;;;;;;;12.57;7.13;;;2.40;99.90;;;;;;5016840;28;20103;-79
2022/01/31 02:03:16;;;;;;;11.10;6.88;;;2.30;99.90;;;;;;5033204;28;20484;-76
2022/01/31 02:05:43;;;;;;;11.93;5.73;;;2.30;99.90;;;;;;5032429;28;20088;-79
2022/01/31 02:08:12;;;;;;;18.77;6.97;;;2.30;99.90;;;;;;5032971;28;20519;-76
2022/01/31 02:10:38;;;;;;;10.03;4.50;;;2.30;99.90;;;;;;5015963;28;20052;-76
2022/01/31 02:13:06;;;;;;;12.63;8.13;;;2.30;99.90;;;;;;5032614;28;20049;-79
2022/01/31 02:15:32;;;;;;;10.47;5.87;;;2.30;99.90;;;;;;5015992;28;20042;-79
2022/01/31 02:17:58;;;;;;;11.63;6.53;;;2.20;99.90;;;;;;5032441;28;20052;-76
2022/01/31 02:20:24;;;;;;;12.55;5.22;;;2.20;99.90;;;;;;5032329;28;20439;-79
2022/01/31 02:22:50;;;;;;;6.87;4.73;;;2.10;99.90;;;;;;5016003;28;20045;-76
2022/01/31 02:25:16;;;;;;;12.93;7.83;;;2.00;99.90;;;;;;5032122;28;20112;-77
2022/01/31 02:27:43;;;;;;;12.40;6.37;;;2.00;99.90;;;;;;5015942;28;20072;-77
2022/01/31 02:30:11;;;;;;;7.20;5.20;;;2.00;99.90;;;;;;5032156;28;20049;-76
2022/01/31 02:32:37;;;;;;;19.60;10.50;;;1.90;99.90;;;;;;5032190;28;20041;-77
2022/01/31 02:35:04;;;;;;;11.43;6.50;;;2.00;99.90;;;;;;5015828;28;20059;-80
2022/01/31 02:37:30;;;;;;;11.27;5.80;;;2.00;99.90;;;;;;5015886;28;20058;-80
2022/01/31 02:39:56;;;;;;;10.47;4.33;;;2.00;99.90;;;;;;5015878;28;20132;-76
2022/01/31 02:42:23;;;;;;;14.83;8.23;;;2.10;99.90;;;;;;5032215;28;20045;-76
2022/01/31 02:44:49;;;;;;;9.20;6.03;;;2.20;99.90;;;;;;5032301;28;20607;-76
2022/01/31 02:47:22;;;;;;;11.00;6.43;;;2.20;99.90;;;;;;5031896;28;20048;-76
2022/01/31 02:50:00;;;;;;;8.65;5.35;;;2.30;99.90;;;;;;5031221;28;20068;-76
2022/01/31 02:52:30;;;;;;;9.67;6.40;;;2.30;99.90;;;;;;5032128;28;20060;-80
2022/01/31 02:54:56;;;;;;;20.37;13.40;;;3.00;99.90;;;;;;5015273;28;20045;-79
2022/01/31 02:57:22;;;;;;;13.43;7.07;;;2.40;99.90;;;;;;5015298;28;20508;-77
2022/01/31 02:59:47;;;;;;;18.43;9.80;;;2.60;99.90;;;;;;5031682;28;20056;-80
2022/01/31 03:02:14;;;;;;;16.00;9.47;;;2.70;99.90;;;;;;5031733;28;20040;-77
2022/01/31 03:04:40;;;;;;;14.30;7.60;;;2.70;99.90;;;;;;5015404;28;20049;-78
2022/01/31 03:07:06;;;;;;;15.57;7.03;;;2.90;99.90;;;;;;5031560;28;20049;-80
2022/01/31 03:09:31;;;;;;;14.93;6.07;;;3.00;99.90;;;;;;5015176;28;20559;-76
2022/01/31 03:11:58;;;;;;;15.03;7.20;;;3.10;99.90;;;;;;5015111;28;20045;-79
2022/01/31 03:14:23;;;;;;;13.65;7.45;;;3.10;99.90;;;;;;5031562;28;20041;-76
2022/01/31 03:16:49;;;;;;;16.63;9.03;;;3.10;99.90;;;;;;5015144;28;20495;-79
2022/01/31 03:19:17;;;;;;;10.90;4.18;;;3.30;99.90;;;;;;5015075;28;20041;-80
2022/01/31 03:21:43;;;;;;;9.77;4.90;;;3.60;99.90;;;;;;5015505;28;20508;-76
2022/01/31 03:24:10;;;;;;;7.20;2.33;;;3.80;99.90;;;;;;5031554;28;20049;-79
2022/01/31 03:26:37;;;;;;;7.70;2.47;;;3.90;99.90;;;;;;5031345;28;20053;-76
2022/01/31 03:29:04;;;;;;;6.47;2.37;;;3.90;99.90;;;;;;4998723;28;20056;-79
2022/01/31 03:31:30;;;;;;;4.60;2.40;;;4.00;99.90;;;;;;5031426;28;20044;-79
2022/01/31 03:33:56;;;;;;;9.35;2.22;;;4.00;99.90;;;;;;5031390;28;20033;-76
2022/01/31 03:36:22;;;;;;;14.30;3.58;;;4.30;99.90;;;;;;5031672;28;20033;-79
2022/01/31 03:38:49;;;;;;;20.15;3.58;;;4.20;99.90;;;;;;5031554;28;20092;-79
2022/01/31 03:41:20;;;;;;;17.87;4.03;;;4.50;99.90;;;;;;5031241;28;20042;-79
2022/01/31 03:43:45;;;;;;;13.18;2.85;;;4.70;99.90;;;;;;5031785;28;20503;-79
2022/01/31 03:46:11;;;;;;;28.83;4.47;;;4.80;99.90;;;;;;4998522;28;20049;-79
2022/01/31 03:48:37;;;;;;;15.02;2.92;;;4.80;99.90;;;;;;5031446;28;20500;-77
2022/01/31 03:51:04;;;;;;;16.15;3.83;;;4.90;99.90;;;;;;5014642;28;20534;-76
2022/01/31 03:53:31;;;;;;;20.63;3.88;;;4.80;99.90;;;;;;5031307;28;20092;-79
2022/01/31 03:55:57;;;;;;;22.58;4.22;;;5.00;99.90;;;;;;5031451;28;20545;-79
2022/01/31 03:58:23;;;;;;;26.73;3.28;;;4.80;99.90;;;;;;5031453;28;20495;-80
2022/01/31 04:00:49;;;;;;;9.52;2.33;;;4.80;99.90;;;;;;5014665;28;20052;-80
2022/01/31 04:03:15;;;;;;;13.52;3.03;;;4.70;99.90;;;;;;5002048;28;20041;-75
2022/01/31 04:05:41;;;;;;;11.55;1.80;;;4.50;99.90;;;;;;5018394;28;20111;-80
2022/01/31 04:08:07;;;;;;;8.77;1.20;;;4.40;99.90;;;;;;5035068;28;20052;-80
2022/01/31 04:10:34;;;;;;;14.43;2.25;;;4.30;99.90;;;;;;5002106;28;20132;-80
2022/01/31 04:13:00;;;;;;;13.60;2.90;;;4.30;99.90;;;;;;5034871;28;20042;-77
2022/01/31 04:15:26;;;;;;;14.32;2.38;;;4.40;99.90;;;;;;5001954;28;20114;-76
2022/01/31 04:17:52;;;;;;;15.20;2.10;;;4.40;99.90;;;;;;5035095;28;20476;-77
2022/01/31 04:20:19;;;;;;;10.30;1.40;;;4.40;99.90;;;;;;5034885;28;20190;-76
2022/01/31 04:22:54;;;;;;;9.18;1.77;;;4.30;99.90;;;;;;5034475;28;20051;-76
2022/01/31 04:25:41;;;;;;;10.30;1.95;;;4.20;99.90;;;;;;5034453;28;20038;-78
2022/01/31 04:28:17;;;;;;;16.77;2.55;;;4.20;99.90;;;;;;5034631;28;20049;-75
2022/01/31 04:33:31;;;;;;;14.35;2.22;;;4.20;99.90;;;;;;5003953;28;20063;-79
2022/01/31 04:35:56;;;;;;;11.50;2.17;;;4.10;99.90;;;;;;5017809;28;20563;-80
2022/01/31 04:38:23;;;;;;;10.85;2.67;;;4.00;99.90;;;;;;5034448;28;20053;-80
2022/01/31 04:40:49;;;;;;;14.27;2.22;;;4.00;99.90;;;;;;5017731;28;20041;-79
2022/01/31 04:43:14;;;;;;;10.90;1.75;;;3.80;99.90;;;;;;5017890;28;20119;-76
2022/01/31 04:45:47;;;;;;;22.35;3.75;;;3.80;99.90;;;;;;5017914;28;20053;-76
2022/01/31 04:48:14;;;;;;;19.40;2.10;;;3.80;99.90;;;;;;5017783;28;20045;-79
2022/01/31 04:50:40;;;;;;;12.98;2.03;;;3.80;99.90;;;;;;5033934;28;20050;-74
2022/01/31 04:53:06;;;;;;;24.35;3.60;;;3.80;99.90;;;;;;5034138;28;20045;-79
2022/01/31 04:55:32;;;;;;;13.98;2.63;;;3.80;99.90;;;;;;5017456;28;20100;-76
2022/01/31 04:57:57;;;;;;;14.18;2.55;;;3.90;99.90;;;;;;5017545;28;20436;-76
2022/01/31 05:00:23;;;;;;;8.38;1.42;;;4.00;99.90;;;;;;5017728;28;20555;-80
2022/01/31 05:02:49;;;;;;;10.88;2.15;;;4.20;99.90;;;;;;5034167;28;20041;-75
2022/01/31 05:05:14;;;;;;;8.02;1.35;;;4.20;99.90;;;;;;5033955;28;20045;-75
2022/01/31 05:07:40;;;;;;;7.55;2.08;;;4.10;99.90;;;;;;5017379;28;20064;-79
2022/01/31 05:10:06;;;;;;;13.77;1.75;;;4.10;99.90;;;;;;5033745;28;20132;-75
2022/01/31 05:12:32;;;;;;;11.82;1.38;;;4.10;99.90;;;;;;5033497;28;20075;-79
2022/01/31 05:14:58;;;;;;;18.60;1.48;;;4.10;99.90;;;;;;5033281;28;20233;-75
2022/01/31 05:17:23;;;;;;;15.10;2.25;;;4.00;99.90;;;;;;5017110;28;20407;-80
2022/01/31 05:19:49;;;;;;;10.40;1.45;;;4.00;99.90;;;;;;5017142;28;20411;-79
2022/01/31 05:22:15;;;;;;;11.52;1.42;;;4.00;99.90;;;;;;5017246;28;20065;-79
2022/01/31 05:24:40;;;;;;;17.45;1.70;;;3.90;99.90;;;;;;5033401;28;20052;-80
2022/01/31 05:27:06;;;;;;;12.23;1.20;;;3.90;99.90;;;;;;5034679;28;20139;-75
2022/01/31 05:29:32;;;;;;;5.97;1.02;;;3.70;99.90;;;;;;5000964;28;20049;-79
2022/01/31 05:31:57;;;;;;;8.15;1.77;;;3.60;99.90;;;;;;5033549;28;20049;-79
2022/01/31 05:34:24;;;;;;;8.80;1.38;;;3.60;99.90;;;;;;5016730;28;20077;-80
2022/01/31 05:36:54;;;;;;;5.63;1.08;;;3.70;99.90;;;;;;5033402;28;20491;-79
2022/01/31 05:39:21;;;;;;;7.55;1.02;;;3.70;99.90;;;;;;5033446;28;20395;-76
2022/01/31 05:41:47;;;;;;;3.20;0.75;;;3.80;99.90;;;;;;5016943;28;20403;-79
2022/01/31 05:44:12;;;;;;;7.18;1.25;;;3.90;99.90;;;;;;5033501;28;20045;-76
2022/01/31 05:46:38;;;;;;;12.55;1.67;;;3.80;99.90;;;;;;5033137;28;20053;-76
2022/01/31 05:49:04;;;;;;;12.63;1.42;;;3.90;99.90;;;;;;5032903;28;20061;-76
2022/01/31 05:51:30;;;;;;;7.40;0.70;;;4.00;99.90;;;;;;5032918;28;20057;-76
2022/01/31 05:53:55;;;;;;;10.90;2.22;;;3.90;99.90;;;;;;5016451;28;20042;-80
2022/01/31 05:56:21;;;;;;;15.68;2.58;;;3.90;99.90;;;;;;5032879;28;20388;-79
2022/01/31 05:58:49;;;;;;;16.33;1.48;;;3.90;99.90;;;;;;5032974;28;20057;-75
2022/01/31 06:01:16;;;;;;;8.68;1.02;;;4.00;99.90;;;;;;5032994;28;20165;-79
2022/01/31 06:03:41;;;;;;;25.40;1.90;;;3.90;99.90;;;;;;5032839;28;20053;-79
2022/01/31 06:06:07;;;;;;;5.95;1.33;;;4.00;99.90;;;;;;5016061;28;20492;-76
2022/01/31 06:08:33;;;;;;;10.00;1.60;;;4.20;99.90;;;;;;5032837;28;20424;-75
2022/01/31 06:10:59;;;;;;;11.90;1.27;;;3.90;99.90;;;;;;5032401;28;20041;-79
2022/01/31 06:13:28;;;;;;;4.55;0.63;;;4.00;99.90;;;;;;5016151;28;20052;-79
2022/01/31 06:15:54;;;;;;;9.07;1.20;;;3.90;99.90;;;;;;5032689;28;20460;-75
2022/01/31 06:18:20;;;;;;;12.77;1.63;;;4.00;99.90;;;;;;4999723;28;20080;-75
2022/01/31 06:20:46;;;;;;;5.88;0.63;;;4.00;99.90;;;;;;5032622;28;20072;-75
2022/01/31 06:23:12;;;;;;;4.75;1.08;;;4.00;99.90;;;;;;5032440;28;20120;-80
2022/01/31 06:25:38;;;;;;;10.15;1.17;;;4.00;99.90;;;;;;5015009;28;20416;-75
2022/01/31 06:28:05;;;;;;;13.27;1.73;;;4.00;99.90;;;;;;5032372;28;20041;-80
2022/01/31 06:30:31;;;;;;;6.55;1.10;;;4.10;99.90;;;;;;5032219;28;20048;-75
2022/01/31 06:32:57;;;;;;;12.82;2.15;;;4.10;99.90;;;;;;5032315;28;20045;-75
2022/01/31 06:35:24;;;;;;;15.77;1.75;;;4.10;99.90;;;;;;5032289;28;20081;-76
2022/01/31 06:37:50;;;;;;;9.48;1.63;;;4.10;99.90;;;;;;5032307;28;20045;-80
2022/01/31 06:40:15;;;;;;;17.48;3.20;;;4.20;99.90;;;;;;5032324;28;20053;-80
2022/01/31 06:42:41;;;;;;;7.05;1.58;;;4.10;99.90;;;;;;5031920;28;20045;-80
2022/01/31 06:45:08;;;;;;;8.73;1.05;;;4.10;99.90;;;;;;5031854;28;20076;-76
2022/01/31 06:47:34;;;;;;;8.65;1.73;;;4.30;99.90;;;;;;5015473;28;20048;-76
2022/01/31 06:50:00;;;;;;;8.30;1.80;;;4.30;99.90;;;;;;5031598;28;20069;-80
2022/01/31 06:52:31;;;;;;;9.90;0.77;;;4.30;99.90;;;;;;5032113;28;20377;-79
2022/01/31 06:55:01;;;;;;;11.25;0.70;;;4.30;99.90;;;;;;4999815;28;20048;-75
2022/01/31 06:57:33;;;;;;;16.38;2.35;;;4.20;99.90;;;;;;5016228;28;20048;-75
2022/01/31 07:00:07;;;;;;;11.35;1.38;;;4.30;99.90;;;;;;5016417;28;20403;-75
2022/01/31 07:02:33;;;;;;;8.95;1.27;;;4.20;99.90;;;;;;5015246;28;20081;-75
2022/01/31 07:05:02;;;;;;;8.32;1.60;;;4.20;99.90;;;;;;5031830;28;20476;-80
2022/01/31 07:07:28;;;;;;;12.50;1.27;;;4.20;99.90;;;;;;5031477;28;20504;-80
2022/01/31 07:09:54;;;;;;;6.70;1.58;;;4.20;99.90;;;;;;5031463;28;20057;-80
2022/01/31 07:12:23;;;;;;;8.07;1.27;;;4.20;99.90;;;;;;4998666;28;20041;-80
2022/01/31 07:14:49;;;;;;;16.88;1.67;;;4.10;99.90;;;;;;5015792;28;20095;-76
2022/01/31 07:17:15;;;;;;;16.85;1.52;;;4.20;99.90;;;;;;5015138;28;20045;-75
2022/01/31 07:19:42;;;;;;;6.72;1.15;;;4.00;99.90;;;;;;5015251;28;20044;-80
2022/01/31 07:22:11;;;;;;;7.75;1.00;;;4.00;99.90;;;;;;5031831;28;20496;-80
2022/01/31 07:27:04;;;;;;;10.15;0.90;;;4.10;99.90;;;;;;5031324;28;20085;-80
2022/01/31 07:29:30;;;;;;;17.88;2.10;;;4.00;99.90;;;;;;5014995;28;20053;-80
2022/01/31 07:31:57;;;;;;;13.95;2.00;;;4.10;99.90;;;;;;5031378;28;20427;-75
2022/01/31 07:34:23;;;;;;;13.85;2.33;;;4.00;99.90;;;;;;5031337;28;20099;-80
2022/01/31 07:36:49;;;;;;;10.52;2.22;;;4.20;99.90;;;;;;5032962;28;20053;-76
2022/01/31 07:39:16;;;;;;;12.50;1.80;;;4.10;99.90;;;;;;5018721;28;20046;-75
2022/01/31 07:41:42;;;;;;;16.50;1.17;;;4.10;99.90;;;;;;5018791;28;20041;-80
2022/01/31 07:44:09;;;;;;;23.70;1.52;;;4.10;99.90;;;;;;5035344;28;20286;-80
2022/01/31 07:46:35;;;;;;;14.80;1.17;;;4.10;99.90;;;;;;5018565;28;20055;-75
2022/01/31 07:49:02;;;;;;;16.30;1.35;;;4.10;99.90;;;;;;5035190;28;20129;-80
2022/01/31 07:51:28;;;;;;;19.00;2.08;;;4.20;99.90;;;;;;5001930;28;20045;-80
2022/01/31 07:53:53;;;;;;;13.45;1.33;;;4.00;99.90;;;;;;5035191;28;20045;-80
2022/01/31 07:56:20;;;;;;;12.73;1.25;;;4.00;99.90;;;;;;5018781;28;20064;-80
2022/01/31 07:58:46;;;;;;;25.33;1.65;;;4.00;99.90;;;;;;5018773;28;20049;-76
2022/01/31 08:01:13;;;;;;;17.95;2.50;;;4.00;99.90;;;;;;5035125;28;20112;-75
2022/01/31 08:03:40;;;;;;;12.80;2.20;;;4.00;99.90;;;;;;5034639;28;20053;-81
2022/01/31 08:06:06;;;;;;;14.52;1.60;;;3.80;99.90;;;;;;5034750;28;20184;-80
2022/01/31 08:08:32;;;;;;;15.23;1.15;;;3.80;99.90;;;;;;5035064;28;20132;-75
2022/01/31 08:11:00;;;;;;;18.00;2.45;;;3.90;99.90;;;;;;5034608;28;20081;-80
2022/01/31 08:13:26;;;;;;;10.13;1.02;;;3.90;99.90;;;;;;5018281;28;20042;-80
2022/01/31 08:16:09;;;;;;;15.70;1.77;;;4.00;99.90;;;;;;5034762;28;20103;-80
2022/01/31 08:18:37;;;;;;;11.13;1.73;;;4.30;99.90;;;;;;5034649;28;20041;-75
2022/01/31 08:21:03;;;;;;;20.27;2.17;;;4.30;99.90;;;;;;5018652;28;20037;-75
2022/01/31 08:23:30;;;;;;;14.23;1.90;;;4.10;99.90;;;;;;5034828;28;20042;-75
2022/01/31 08:25:58;;;;;;;12.75;1.20;;;4.10;99.90;;;;;;5034658;28;20045;-76
2022/01/31 08:28:33;;;;;;;7.90;2.10;;;4.20;99.90;;;;;;5034766;28;20054;-80
2022/01/31 08:31:06;;;;;;;13.40;1.48;;;4.40;99.90;;;;;;5034398;28;20138;-80
2022/01/31 08:33:38;;;;;;;10.25;0.93;;;4.40;99.90;;;;;;5019036;28;20096;-75
2022/01/31 08:36:07;;;;;;;15.93;1.45;;;4.40;99.90;;;;;;5034250;28;20041;-75
2022/01/31 08:38:36;;;;;;;12.02;1.77;;;4.60;99.90;;;;;;5034608;28;20046;-79
2022/01/31 08:41:02;;;;;;;8.50;1.02;;;4.50;99.90;;;;;;5017700;28;20041;-75
2022/01/31 08:43:28;;;;;;;11.98;1.20;;;4.70;99.90;;;;;;5017844;28;20048;-75
2022/01/31 08:45:56;;;;;;;15.93;3.60;;;4.70;99.90;;;;;;5033878;28;20053;-75
2022/01/31 08:48:23;;;;;;;12.48;1.08;;;4.50;99.90;;;;;;5033201;28;20049;-75
2022/01/31 08:50:49;;;;;;;9.98;1.13;;;4.60;99.90;;;;;;5017316;28;20404;-75
2022/01/31 08:53:15;;;;;;;8.63;1.70;;;4.60;99.90;;;;;;5034117;28;20056;-76
2022/01/31 08:55:52;;;;;;;7.05;0.73;;;4.70;99.90;;;;;;5033754;28;20045;-79
2022/01/31 08:58:19;;;;;;;11.10;1.42;;;4.80;99.90;;;;;;5033891;28;20050;-80
2022/01/31 09:00:49;;;;;;;3.30;1.15;;;4.80;99.90;;;;;;5017038;28;20041;-75
2022/01/31 09:05:42;;;;;;;8.30;1.33;;;4.90;99.90;;;;;;5033733;28;20065;-75
2022/01/31 09:08:08;;;;;;;12.43;1.58;;;4.60;99.90;;;;;;5033818;28;20133;-76
2022/01/31 09:10:34;;;;;;;9.27;2.08;;;4.90;99.90;;;;;;5033823;28;20136;-75
2022/01/31 09:13:00;;;;;;;14.57;1.58;;;4.90;99.90;;;;;;5033684;28;20119;-80
2022/01/31 09:15:26;;;;;;;6.00;1.15;;;5.00;99.90;;;;;;5033494;28;20477;-77
2022/01/31 09:17:52;;;;;;;13.63;1.30;;;5.20;99.90;;;;;;5000990;28;20049;-80
2022/01/31 09:20:18;;;;;;;10.77;1.55;;;5.10;99.90;;;;;;5017045;28;20117;-80
2022/01/31 09:22:45;;;;;;;11.00;1.20;;;5.00;99.90;;;;;;5033411;28;20038;-80
2022/01/31 09:25:14;;;;;;;7.07;1.10;;;5.00;99.90;;;;;;5033422;28;20042;-80
2022/01/31 09:27:41;;;;;;;8.65;1.63;;;4.90;99.90;;;;;;5033303;28;20046;-75
2022/01/31 09:30:09;;;;;;;5.55;0.70;;;5.00;99.90;;;;;;5000705;28;20037;-79
2022/01/31 09:32:35;;;;;;;9.15;1.42;;;5.00;99.90;;;;;;5033395;28;20049;-81
2022/01/31 09:35:03;;;;;;;12.57;1.17;;;5.10;99.90;;;;;;5033120;28;20108;-76
2022/01/31 09:37:29;;;;;;;9.90;1.38;;;5.10;99.90;;;;;;5033095;28;20052;-80
2022/01/31 09:40:02;;;;;;;15.95;2.28;;;5.30;99.90;;;;;;5032982;28;20042;-80
2022/01/31 09:42:34;;;;;;;8.05;1.52;;;5.40;99.90;;;;;;5033319;28;20085;-80
2022/01/31 09:50:12;;;;;;;13.50;1.45;;;5.50;99.90;;;;;;5019216;28;20053;-80
2022/01/31 09:52:37;;;;;;;15.85;2.10;;;5.60;99.90;;;;;;5032729;28;20496;-75
2022/01/31 09:55:04;;;;;;;15.65;1.60;;;5.60;99.90;;;;;;5032839;28;20108;-76
2022/01/31 09:57:30;;;;;;;6.28;1.15;;;5.70;99.90;;;;;;5016678;28;20115;-80
2022/01/31 09:59:55;;;;;;;6.93;1.23;;;5.80;99.90;;;;;;5032660;28;20053;-76
2022/01/31 10:02:21;;;;;;;13.27;2.00;;;6.00;99.90;;;;;;5032503;28;20056;-80
2022/01/31 10:04:48;;;;;;;13.05;1.10;;;6.10;99.90;;;;;;5032851;28;20045;-76
2022/01/31 10:07:15;;;;;;;5.22;0.80;;;6.40;99.90;;;;;;5015971;28;20092;-81
2022/01/31 10:09:45;;;;;;;12.40;1.42;;;6.20;99.90;;;;;;5032383;28;20049;-81
2022/01/31 10:17:47;;;;;;;9.98;1.73;;;6.50;99.90;;;;;;5032689;28;20483;-76
2022/01/31 10:20:19;;;;;;;6.30;0.93;;;6.50;99.90;;;;;;5032311;28;20041;-77
2022/01/31 10:22:46;;;;;;;5.47;0.85;;;6.50;99.90;;;;;;5032476;28;20053;-76
2022/01/31 10:25:15;;;;;;;7.03;1.10;;;6.60;99.90;;;;;;5032180;28;20083;-76
2022/01/31 10:27:47;;;;;;;10.98;0.98;;;6.50;99.90;;;;;;5032146;28;20047;-81
2022/01/31 10:30:16;;;;;;;12.32;1.70;;;6.70;99.90;;;;;;5032417;28;20377;-76
2022/01/31 10:32:44;;;;;;;6.45;1.50;;;6.80;99.90;;;;;;5032068;28;20049;-77
2022/01/31 10:35:23;;;;;;;12.07;2.00;;;6.90;99.90;;;;;;5031928;28;20045;-76
2022/01/31 10:37:54;;;;;;;13.95;2.10;;;7.10;99.90;;;;;;5032582;28;20049;-80
2022/01/31 10:56:57;;;;;;;12.57;2.33;;;8.00;99.90;;;;;;5031679;28;20148;-80
2022/01/31 10:59:30;;;;;;;14.18;1.75;;;8.10;99.90;;;;;;5031663;28;20049;-76
2022/01/31 11:01:58;;;;;;;15.35;2.22;;;7.80;99.90;;;;;;5031882;28;20462;-76
2022/01/31 11:04:28;;;;;;;17.13;3.03;;;7.90;99.90;;;;;;5031935;28;20125;-81
2022/01/31 11:07:00;;;;;;;12.30;2.13;;;8.00;99.90;;;;;;5031447;28;20072;-80
2022/01/31 11:09:29;;;;;;;13.77;2.10;;;8.00;99.90;;;;;;5015291;28;20553;-77
2022/01/31 11:11:54;;;;;;;15.75;2.25;;;8.00;99.90;;;;;;5030904;28;20049;-76
2022/01/31 11:14:20;;;;;;;20.50;2.92;;;7.80;99.90;;;;;;5031456;28;20049;-78
2022/01/31 11:16:48;;;;;;;13.50;1.73;;;7.40;99.90;;;;;;5031489;28;20104;-76
2022/01/31 11:19:15;;;;;;;16.70;2.80;;;7.60;99.90;;;;;;5031759;28;20049;-81
2022/01/31 11:21:45;;;;;;;15.93;2.17;;;7.90;99.90;;;;;;5015234;28;20387;-77
2022/01/31 11:24:22;;;;;;;23.38;2.08;;;7.90;99.90;;;;;;5031621;28;20054;-77
2022/01/31 11:26:50;;;;;;;13.90;2.22;;;8.30;99.90;;;;;;5031312;28;20056;-80
2022/01/31 11:29:17;;;;;;;12.43;2.10;;;8.60;99.90;;;;;;5031360;28;20124;-77
2022/01/31 11:31:44;;;;;;;16.55;2.20;;;8.70;99.90;;;;;;5031588;28;20508;-80
2022/01/31 11:34:10;;;;;;;13.98;2.20;;;8.40;99.90;;;;;;5031546;28;20116;-76
2022/01/31 11:36:37;;;;;;;14.30;1.60;;;7.90;99.90;;;;;;5031023;28;20055;-76
2022/01/31 11:39:12;;;;;;;14.02;1.80;;;7.50;99.90;;;;;;5031155;28;20049;-76
2022/01/31 11:41:47;;;;;;;13.18;1.85;;;7.30;99.90;;;;;;5031231;28;20042;-76
2022/01/31 11:44:25;;;;;;;20.85;3.63;;;7.20;99.90;;;;;;5014858;28;20492;-76
2022/01/31 11:46:53;;;;;;;14.95;2.83;;;7.20;99.90;;;;;;5030895;28;20107;-76
2022/01/31 11:49:19;;;;;;;17.27;3.10;;;7.50;99.90;;;;;;5030995;28;20045;-80
2022/01/31 11:52:04;;;;;;;15.15;2.47;;;7.60;99.90;;;;;;5030757;28;20088;-76
2022/01/31 11:54:30;;;;;;;13.05;1.67;;;7.60;99.90;;;;;;5014703;28;20049;-76
2022/01/31 11:56:56;;;;;;;12.57;2.22;;;7.70;99.90;;;;;;5031034;28;20056;-76
2022/01/31 11:59:24;;;;;;;15.70;1.88;;;7.70;99.90;;;;;;5014643;28;20046;-80
2022/01/31 12:01:51;;;;;;;18.95;2.20;;;7.80;99.90;;;;;;5014372;28;20069;-76
2022/01/31 12:04:31;;;;;;;12.95;1.90;;;7.70;99.90;;;;;;5030822;28;20050;-76
2022/01/31 12:06:56;;;;;;;12.00;2.35;;;7.60;99.90;;;;;;5031071;28;20053;-79
2022/01/31 12:09:26;;;;;;;17.83;3.17;;;7.60;99.90;;;;;;5030723;28;20046;-80
2022/01/31 12:11:54;;;;;;;14.98;3.38;;;7.60;99.90;;;;;;5030773;28;20045;-76
2022/01/31 12:14:32;;;;;;;16.33;2.88;;;7.50;99.90;;;;;;5030990;28;20081;-80
2022/01/31 12:17:16;;;;;;;18.05;2.65;;;7.40;99.90;;;;;;5030852;28;20095;-79
2022/01/31 12:20:00;;;;;;;24.63;3.28;;;7.40;99.90;;;;;;5016872;28;20085;-80
2022/01/31 12:22:51;;;;;;;14.15;2.10;;;7.50;99.90;;;;;;5030911;28;20100;-79
2022/01/31 12:25:29;;;;;;;8.63;2.58;;;7.50;99.90;;;;;;5034449;28;20107;-76
2022/01/31 12:27:56;;;;;;;19.15;2.80;;;7.50;99.90;;;;;;5018045;28;20107;-76
2022/01/31 12:30:34;;;;;;;18.13;3.20;;;7.50;99.90;;;;;;5018095;28;20099;-76
2022/01/31 12:33:01;;;;;;;17.67;2.03;;;7.40;99.90;;;;;;5034151;28;20041;-78
2022/01/31 12:35:37;;;;;;;17.17;3.63;;;7.40;99.90;;;;;;5017875;28;20049;-79
2022/01/31 12:38:06;;;;;;;17.52;3.05;;;7.40;99.90;;;;;;5017719;28;20124;-76
2022/01/31 12:40:40;;;;;;;18.90;2.05;;;7.50;99.90;;;;;;5017717;28;20041;-77
2022/01/31 12:44:07;;;;;;;17.60;3.15;;;7.50;99.90;;;;;;5034186;28;20057;-80
2022/01/31 12:46:08;;;;;;;9.63;1.85;;;7.40;99.90;;;;;;5023664;28;20054;-80
2022/01/31 12:48:35;;;;;;;9.48;2.05;;;7.40;99.90;;;;;;5017587;28;20092;-76
2022/01/31 12:51:04;;;;;;;18.70;3.20;;;7.40;99.90;;;;;;5033770;28;20092;-76
2022/01/31 12:53:41;;;;;;;16.63;2.53;;;7.40;99.90;;;;;;5034052;28;20053;-79
2022/01/31 12:56:24;;;;;;;20.50;4.38;;;7.40;99.90;;;;;;5017285;28;20052;-79
2022/01/31 12:59:17;;;;;;;15.63;2.72;;;7.50;99.90;;;;;;5034218;28;20458;-80
2022/01/31 13:01:48;;;;;;;16.92;2.70;;;7.40;99.90;;;;;;5016004;28;20052;-75
2022/01/31 13:04:23;;;;;;;21.73;2.60;;;7.40;99.90;;;;;;5017389;28;20048;-77
2022/01/31 13:06:59;;;;;;;16.73;2.42;;;7.40;99.90;;;;;;5033414;28;20046;-76
2022/01/31 13:09:37;;;;;;;24.88;4.18;;;7.40;99.90;;;;;;5016937;28;20087;-80
2022/01/31 13:12:15;;;;;;;19.20;2.97;;;7.40;99.90;;;;;;5033667;28;20053;-76
2022/01/31 13:14:44;;;;;;;17.17;2.85;;;7.40;99.90;;;;;;5033445;28;20103;-76
2022/01/31 13:17:14;;;;;;;17.77;2.42;;;7.40;99.90;;;;;;5033278;28;20107;-79
2022/01/31 13:19:53;;;;;;;15.13;2.53;;;7.40;99.90;;;;;;5016648;28;20570;-76
2022/01/31 13:25:15;;;;;;;24.30;3.22;;;7.40;99.90;;;;;;5033085;28;20056;-80
2022/01/31 13:27:43;;;;;;;14.35;2.83;;;7.50;99.90;;;;;;5000429;28;20088;-79
2022/01/31 13:30:17;;;;;;;21.75;3.22;;;7.40;99.90;;;;;;5016642;28;20056;-79
2022/01/31 13:32:44;;;;;;;18.90;3.47;;;7.40;99.90;;;;;;5016649;28;20057;-76
2022/01/31 13:35:15;;;;;;;21.10;3.42;;;7.40;99.90;;;;;;5032921;28;20443;-80